createdAt,value
2023-03-16T00:02:04.217Z,1.65
2023-03-16T00:04:31.914Z,1.63
2023-03-16T00:06:59.541Z,1.60
2023-03-16T00:09:31.505Z,1.57
2023-03-16T00:11:59.347Z,1.56
2023-03-16T00:14:26.972Z,1.51
2023-03-16T00:16:54.581Z,1.49
2023-03-16T00:19:23.086Z,1.47
2023-03-16T00:21:51.802Z,1.46
2023-03-16T00:24:19.731Z,1.43
2023-03-16T00:26:47.323Z,1.41
2023-03-16T00:29:14.961Z,1.35
2023-03-16T00:31:44.193Z,1.31
2023-03-16T00:34:12.292Z,1.29
2023-03-16T00:36:40.000Z,1.29
2023-03-16T00:39:07.697Z,1.29
2023-03-16T00:41:38.129Z,1.26
2023-03-16T00:44:05.986Z,1.25
2023-03-16T00:46:33.793Z,1.22
2023-03-16T00:49:02.882Z,1.22
2023-03-16T00:51:33.825Z,1.21
2023-03-16T00:54:01.480Z,1.21
2023-03-16T00:56:29.189Z,1.24
2023-03-16T00:58:58.200Z,1.30
2023-03-16T01:01:26.518Z,1.36
2023-03-16T01:03:54.645Z,1.44
2023-03-16T01:06:22.374Z,1.53
2023-03-16T01:08:50.256Z,1.66
2023-03-16T01:11:18.428Z,1.79
2023-03-16T01:13:47.220Z,1.94
2023-03-16T01:16:15.040Z,2.07
2023-03-16T01:18:42.831Z,2.13
2023-03-16T01:21:10.516Z,2.15
2023-03-16T01:23:38.688Z,2.19
2023-03-16T01:26:06.267Z,2.20
2023-03-16T01:28:34.452Z,2.19
2023-03-16T01:31:02.429Z,2.16
2023-03-16T01:33:30.054Z,2.16
2023-03-16T01:35:58.264Z,2.14
2023-03-16T01:38:25.857Z,2.13
2023-03-16T01:40:53.876Z,2.13
2023-03-16T01:43:21.677Z,2.14
2023-03-16T01:45:49.455Z,2.15
2023-03-16T01:48:17.417Z,2.15
2023-03-16T01:50:45.207Z,2.17
2023-03-16T01:53:13.094Z,2.22
2023-03-16T01:55:40.677Z,2.32
2023-03-16T01:58:08.334Z,2.43
2023-03-16T02:00:36.537Z,2.54
2023-03-16T02:03:04.134Z,2.66
2023-03-16T02:05:31.753Z,2.73
2023-03-16T02:07:59.777Z,2.85
2023-03-16T02:10:27.537Z,2.90
2023-03-16T02:12:55.548Z,2.97
2023-03-16T02:15:23.148Z,3.03
2023-03-16T02:17:50.708Z,3.06
2023-03-16T02:20:18.374Z,3.09
2023-03-16T02:22:45.927Z,3.11
2023-03-16T02:25:14.592Z,3.15
2023-03-16T02:27:42.186Z,3.18
2023-03-16T02:30:09.831Z,3.21
2023-03-16T02:32:37.424Z,3.24
2023-03-16T02:35:05.380Z,3.25
2023-03-16T02:37:35.122Z,3.25
2023-03-16T02:40:03.803Z,3.22
2023-03-16T02:42:33.672Z,3.22
2023-03-16T02:45:01.299Z,3.22
2023-03-16T02:47:28.960Z,3.22
2023-03-16T02:49:57.139Z,3.21
2023-03-16T02:52:24.762Z,3.21
2023-03-16T02:54:52.331Z,3.22
2023-03-16T02:57:21.299Z,3.23
2023-03-16T02:59:48.874Z,3.25
2023-03-16T03:02:17.013Z,3.23
2023-03-16T03:04:46.481Z,3.19
2023-03-16T03:07:14.377Z,3.18
2023-03-16T03:09:43.167Z,3.14
2023-03-16T03:12:10.886Z,3.12
2023-03-16T03:14:39.429Z,3.11
2023-03-16T03:17:07.448Z,3.09
2023-03-16T03:19:35.380Z,3.09
2023-03-16T03:22:04.320Z,3.09
2023-03-16T03:24:31.887Z,3.10
2023-03-16T03:27:00.818Z,3.15
2023-03-16T03:29:34.496Z,3.17
2023-03-16T03:32:02.376Z,3.20
2023-03-16T03:34:29.959Z,3.22
2023-03-16T03:36:57.489Z,3.30
2023-03-16T03:39:25.929Z,3.37
2023-03-16T03:41:54.727Z,3.42
2023-03-16T03:44:22.587Z,3.46
2023-03-16T03:46:50.294Z,3.51
2023-03-16T03:49:17.874Z,3.56
2023-03-16T03:51:45.852Z,3.61
2023-03-16T03:54:13.482Z,3.66
2023-03-16T03:56:41.016Z,3.72
2023-03-16T03:59:08.571Z,3.75
2023-03-16T04:01:36.265Z,3.77
2023-03-16T04:04:05.406Z,3.79
2023-03-16T04:06:33.174Z,3.78
2023-03-16T04:09:01.151Z,3.80
2023-03-16T04:11:28.720Z,3.84
2023-03-16T04:13:56.286Z,3.86
2023-03-16T04:16:27.143Z,3.86
2023-03-16T04:18:54.751Z,3.86
2023-03-16T04:21:22.361Z,3.89
2023-03-16T04:23:49.949Z,3.91
2023-03-16T04:26:18.069Z,3.92
2023-03-16T04:28:46.022Z,3.93
2023-03-16T04:31:14.158Z,3.94
2023-03-16T04:33:42.772Z,3.93
2023-03-16T04:36:10.361Z,3.92
2023-03-16T04:38:37.981Z,3.95
2023-03-16T04:41:06.123Z,3.98
2023-03-16T04:43:36.443Z,4.00
2023-03-16T04:46:04.144Z,4.02
2023-03-16T04:48:32.448Z,4.03
2023-03-16T04:51:01.047Z,4.04
2023-03-16T04:53:29.250Z,4.07
2023-03-16T04:55:56.807Z,4.07
2023-03-16T04:58:24.580Z,4.06
2023-03-16T05:00:52.228Z,4.08
2023-03-16T05:03:19.776Z,4.09
2023-03-16T05:05:47.696Z,4.12
2023-03-16T05:08:15.351Z,4.13
2023-03-16T05:10:43.209Z,4.13
2023-03-16T05:13:10.762Z,4.14
2023-03-16T05:15:38.358Z,4.15
2023-03-16T05:18:06.528Z,4.15
2023-03-16T05:20:34.144Z,4.15
2023-03-16T05:23:01.828Z,4.17
2023-03-16T05:25:29.416Z,4.19
2023-03-16T05:27:57.106Z,4.20
2023-03-16T05:30:25.533Z,4.18
2023-03-16T05:32:54.833Z,4.21
2023-03-16T05:35:24.185Z,4.23
2023-03-16T05:37:51.966Z,4.26
2023-03-16T05:40:19.546Z,4.26
2023-03-16T05:42:47.128Z,4.30
2023-03-16T05:45:14.895Z,4.32
2023-03-16T05:47:42.468Z,4.33
2023-03-16T05:50:11.448Z,4.32
2023-03-16T05:52:39.088Z,4.33
2023-03-16T05:55:07.936Z,4.34
2023-03-16T05:57:35.572Z,4.34
2023-03-16T06:00:11.320Z,4.35
2023-03-16T06:02:39.022Z,4.38
2023-03-16T06:05:07.523Z,4.39
2023-03-16T06:07:35.193Z,4.40
2023-03-16T06:10:02.951Z,4.42
2023-03-16T06:12:30.578Z,4.46
2023-03-16T06:14:58.312Z,4.48
2023-03-16T06:17:25.987Z,4.51
2023-03-16T06:19:54.195Z,4.55
2023-03-16T06:22:21.976Z,4.61
2023-03-16T06:24:49.571Z,4.65
2023-03-16T06:27:18.669Z,4.67
2023-03-16T06:29:46.353Z,4.70
2023-03-16T06:32:13.978Z,4.71
2023-03-16T06:34:41.860Z,4.74
2023-03-16T06:37:09.485Z,4.75
2023-03-16T06:39:37.362Z,4.77
2023-03-16T06:42:05.804Z,4.79
2023-03-16T06:44:33.782Z,4.80
2023-03-16T06:47:01.378Z,4.84
2023-03-16T06:49:28.982Z,4.88
2023-03-16T06:51:56.862Z,4.96
2023-03-16T06:54:24.674Z,5.02
2023-03-16T06:56:52.968Z,5.08
2023-03-16T06:59:21.027Z,5.16
2023-03-16T07:01:50.422Z,5.25
2023-03-16T07:04:18.222Z,5.34
2023-03-16T07:06:45.943Z,5.42
2023-03-16T07:09:15.211Z,5.50
2023-03-16T07:11:42.830Z,5.57
2023-03-16T07:14:10.523Z,5.68
2023-03-16T07:16:38.174Z,5.78
2023-03-16T07:19:05.859Z,5.85
2023-03-16T07:21:39.466Z,5.93
2023-03-16T07:24:07.346Z,5.99
2023-03-16T07:26:35.079Z,6.03
2023-03-16T07:29:05.063Z,6.07
2023-03-16T07:31:32.817Z,6.09
2023-03-16T07:34:00.801Z,6.13
2023-03-16T07:36:28.681Z,6.13
2023-03-16T07:38:56.486Z,6.13
2023-03-16T07:41:25.530Z,6.11
2023-03-16T07:43:53.640Z,6.07
2023-03-16T07:46:21.332Z,6.04
2023-03-16T07:48:49.059Z,6.02
2023-03-16T07:51:16.730Z,6.01
2023-03-16T07:53:44.462Z,6.01
2023-03-16T07:56:12.642Z,6.00
2023-03-16T07:58:41.030Z,6.02
2023-03-16T08:01:09.583Z,6.04
2023-03-16T08:03:37.397Z,6.08
2023-03-16T08:06:06.172Z,6.15
2023-03-16T08:08:33.947Z,6.26
2023-03-16T08:11:01.847Z,6.36
2023-03-16T08:13:30.452Z,6.48
2023-03-16T08:16:02.222Z,6.58
2023-03-16T08:18:30.320Z,6.70
2023-03-16T08:20:58.045Z,6.86
2023-03-16T08:23:26.674Z,7.04
2023-03-16T08:25:54.582Z,7.19
2023-03-16T08:28:23.005Z,7.33
2023-03-16T08:30:51.188Z,7.50
2023-03-16T08:33:23.005Z,7.65
2023-03-16T08:35:51.342Z,7.84
2023-03-16T08:38:19.733Z,7.98
2023-03-16T08:40:48.912Z,8.11
2023-03-16T08:43:17.306Z,8.17
2023-03-16T08:45:45.083Z,8.20
2023-03-16T08:48:15.013Z,8.29
2023-03-16T08:50:43.436Z,8.35
2023-03-16T08:53:11.212Z,8.47
2023-03-16T08:55:39.263Z,8.50
2023-03-16T08:58:07.242Z,8.40
2023-03-16T09:00:35.840Z,8.35
2023-03-16T09:03:03.850Z,8.33
2023-03-16T09:05:31.745Z,8.31
2023-03-16T09:08:00.311Z,8.34
2023-03-16T09:10:29.339Z,8.49
2023-03-16T09:12:57.702Z,8.66
2023-03-16T09:15:25.538Z,8.81
2023-03-16T09:17:54.629Z,8.96
2023-03-16T09:20:26.442Z,9.00
2023-03-16T09:22:57.230Z,8.98
2023-03-16T09:25:25.643Z,8.88
2023-03-16T09:27:54.081Z,8.73
2023-03-16T09:30:22.007Z,8.55
2023-03-16T09:32:50.730Z,8.37
2023-03-16T09:35:19.059Z,8.22
2023-03-16T09:38:04.839Z,8.10
2023-03-16T09:40:33.895Z,7.96
2023-03-16T09:43:02.127Z,7.90
2023-03-16T09:45:30.141Z,7.82
2023-03-16T09:47:58.900Z,7.77
2023-03-16T09:50:30.286Z,7.73
2023-03-16T09:53:06.114Z,7.74
2023-03-16T09:55:33.932Z,7.75
2023-03-16T09:58:02.560Z,7.79
2023-03-16T10:00:31.035Z,7.83
2023-03-16T10:02:59.265Z,7.89
2023-03-16T10:05:27.512Z,7.97
2023-03-16T10:07:55.365Z,8.16
2023-03-16T10:10:24.715Z,8.39
2023-03-16T10:12:52.756Z,8.65
2023-03-16T10:15:21.254Z,8.90
2023-03-16T10:17:50.341Z,9.25
2023-03-16T10:20:18.149Z,9.49
2023-03-16T10:22:46.538Z,9.51
2023-03-16T10:25:14.305Z,9.46
2023-03-16T10:27:42.299Z,9.36
2023-03-16T10:30:10.170Z,9.37
2023-03-16T10:32:38.772Z,9.41
2023-03-16T10:35:07.612Z,9.50
2023-03-16T10:37:35.431Z,9.60
2023-03-16T10:40:04.777Z,9.74
2023-03-16T10:42:32.786Z,9.81
2023-03-16T10:45:02.680Z,10.02
2023-03-16T10:47:32.124Z,10.21
2023-03-16T10:49:59.973Z,10.38
2023-03-16T10:52:27.779Z,10.47
2023-03-16T10:54:55.979Z,10.49
2023-03-16T10:57:24.057Z,10.40
2023-03-16T10:59:52.620Z,10.32
2023-03-16T11:02:21.023Z,10.31
2023-03-16T11:04:49.723Z,10.42
2023-03-16T11:07:17.803Z,10.61
2023-03-16T11:09:45.878Z,10.95
2023-03-16T11:12:14.400Z,11.16
2023-03-16T11:14:42.399Z,11.15
2023-03-16T11:17:11.050Z,10.98
2023-03-16T11:19:38.960Z,10.83
2023-03-16T11:22:07.024Z,10.68
2023-03-16T11:24:35.953Z,10.57
2023-03-16T11:27:03.831Z,10.46
2023-03-16T11:29:32.812Z,10.43
2023-03-16T11:32:01.231Z,10.39
2023-03-16T11:34:29.291Z,10.36
2023-03-16T11:36:57.784Z,10.28
2023-03-16T11:39:26.503Z,10.21
2023-03-16T11:41:54.288Z,10.14
2023-03-16T11:44:22.601Z,10.07
2023-03-16T11:47:01.102Z,10.01
2023-03-16T11:49:30.215Z,10.04
2023-03-16T11:51:59.977Z,10.07
2023-03-16T11:54:35.353Z,10.14
2023-03-16T11:57:09.076Z,10.24
2023-03-16T11:59:37.559Z,10.35
2023-03-16T12:02:05.397Z,10.53
2023-03-16T12:04:33.522Z,10.66
2023-03-16T12:07:01.507Z,10.75
2023-03-16T12:09:29.511Z,10.82
2023-03-16T12:11:57.834Z,10.99
2023-03-16T12:14:25.569Z,11.27
2023-03-16T12:16:53.602Z,11.63
2023-03-16T12:19:22.071Z,11.83
2023-03-16T12:21:50.613Z,12.01
2023-03-16T12:24:18.369Z,12.15
2023-03-16T12:26:46.182Z,12.31
2023-03-16T12:29:14.186Z,12.50
2023-03-16T12:31:42.211Z,12.77
2023-03-16T12:34:10.548Z,13.17
2023-03-16T12:36:39.144Z,13.49
2023-03-16T12:39:07.299Z,13.96
2023-03-16T12:41:35.368Z,14.79
2023-03-16T12:44:04.289Z,15.01
2023-03-16T12:46:32.764Z,15.25
2023-03-16T12:49:01.463Z,15.13
2023-03-16T12:51:29.324Z,15.03
2023-03-16T12:53:59.387Z,14.81
2023-03-16T12:56:27.244Z,14.64
2023-03-16T12:58:56.296Z,14.56
2023-03-16T13:01:25.185Z,14.35
2023-03-16T13:03:53.141Z,14.10
2023-03-16T13:06:21.405Z,13.85
2023-03-16T13:08:49.652Z,13.61
2023-03-16T13:11:18.601Z,13.35
2023-03-16T13:13:46.847Z,13.17
2023-03-16T13:16:14.731Z,13.01
2023-03-16T13:18:45.382Z,12.81
2023-03-16T13:21:13.194Z,12.65
2023-03-16T13:23:41.913Z,12.58
2023-03-16T13:26:10.599Z,12.52
2023-03-16T13:28:39.165Z,12.46
2023-03-16T13:31:07.120Z,12.42
2023-03-16T13:33:36.988Z,12.37
2023-03-16T13:36:05.473Z,12.36
2023-03-16T13:38:33.989Z,12.31
2023-03-16T13:41:01.844Z,12.27
2023-03-16T13:43:30.220Z,12.29
2023-03-16T13:45:58.780Z,12.35
2023-03-16T13:48:27.030Z,12.48
2023-03-16T13:50:57.920Z,12.62
2023-03-16T13:53:26.190Z,12.70
2023-03-16T13:55:54.797Z,12.96
2023-03-16T13:58:22.597Z,13.36
2023-03-16T14:00:51.077Z,13.77
2023-03-16T14:03:19.562Z,14.06
2023-03-16T14:05:47.768Z,14.44
2023-03-16T14:08:15.753Z,14.83
2023-03-16T14:10:43.954Z,15.21
2023-03-16T14:13:12.598Z,15.46
2023-03-16T14:15:41.248Z,15.47
2023-03-16T14:18:09.845Z,15.48
2023-03-16T14:20:41.655Z,15.28
2023-03-16T14:23:09.851Z,15.07
2023-03-16T14:25:38.386Z,14.86
2023-03-16T14:28:06.761Z,14.82
2023-03-16T14:30:34.915Z,14.80
2023-03-16T14:33:02.816Z,14.78
2023-03-16T14:35:31.547Z,14.81
2023-03-16T14:38:00.198Z,14.81
2023-03-16T14:40:28.655Z,14.72
2023-03-16T14:42:56.878Z,14.57
2023-03-16T14:45:24.888Z,14.46
2023-03-16T14:47:53.951Z,14.41
2023-03-16T14:50:22.286Z,14.51
2023-03-16T14:52:51.704Z,14.56
2023-03-16T14:55:19.595Z,14.58
2023-03-16T14:57:47.451Z,14.70
2023-03-16T15:00:15.786Z,14.89
2023-03-16T15:02:44.729Z,14.88
2023-03-16T15:05:13.327Z,15.10
2023-03-16T15:07:41.781Z,15.22
2023-03-16T15:10:10.622Z,15.27
2023-03-16T15:12:38.920Z,15.33
2023-03-16T15:15:19.497Z,15.36
2023-03-16T15:17:47.510Z,15.58
2023-03-16T15:20:15.858Z,16.01
2023-03-16T15:22:43.860Z,16.52
2023-03-16T15:25:11.759Z,16.94
2023-03-16T15:27:40.707Z,17.19
2023-03-16T15:30:08.958Z,17.23
2023-03-16T17:19:35.339Z,10.57
2023-03-16T17:22:03.417Z,10.48
2023-03-16T17:24:31.687Z,10.38
2023-03-16T17:27:00.414Z,10.29
2023-03-16T17:29:28.260Z,10.20
2023-03-16T17:31:56.854Z,10.14
2023-03-16T17:34:25.008Z,10.07
2023-03-16T17:36:52.858Z,9.99
2023-03-16T17:39:21.259Z,9.93
2023-03-16T17:41:49.375Z,9.90
2023-03-16T17:44:20.243Z,9.82
2023-03-16T17:46:48.377Z,9.78
2023-03-16T17:49:18.213Z,9.73
2023-03-16T17:51:46.758Z,9.69
2023-03-16T17:54:14.604Z,9.63
2023-03-16T17:56:43.271Z,9.58
2023-03-16T17:59:11.453Z,9.52
2023-03-16T18:01:39.889Z,9.49
2023-03-16T18:04:10.001Z,9.50
2023-03-16T18:06:38.926Z,9.47
2023-03-16T18:09:08.155Z,9.46
2023-03-16T18:11:36.337Z,9.44
2023-03-16T18:14:04.279Z,9.46
2023-03-16T18:16:32.344Z,9.46
2023-03-16T18:19:00.504Z,9.42
2023-03-16T18:21:28.966Z,9.35
2023-03-16T18:23:57.113Z,9.33
2023-03-16T18:26:25.346Z,9.33
2023-03-16T18:28:53.940Z,9.33
2023-03-16T18:31:22.367Z,9.35
2023-03-16T18:33:50.870Z,9.33
2023-03-16T18:36:18.874Z,9.32
2023-03-16T18:38:46.899Z,9.28
2023-03-16T18:41:16.146Z,9.28
2023-03-16T18:43:44.376Z,9.23
2023-03-16T18:46:13.007Z,9.19
2023-03-16T18:48:41.079Z,9.18
2023-03-16T18:51:08.900Z,9.16
2023-03-16T18:53:36.764Z,9.12
2023-03-16T18:56:04.773Z,9.08
2023-03-16T18:58:32.573Z,9.04
2023-03-16T19:01:00.546Z,9.02
2023-03-16T19:03:28.561Z,9.04
2023-03-16T19:05:56.794Z,9.03
2023-03-16T19:08:24.551Z,9.05
2023-03-16T19:10:53.615Z,9.06
2023-03-16T19:13:21.735Z,9.09
2023-03-16T19:15:49.578Z,9.12
2023-03-16T19:18:17.417Z,9.12
2023-03-16T19:20:45.295Z,9.13
2023-03-16T19:23:13.142Z,9.15
2023-03-16T19:25:41.548Z,9.18
2023-03-16T19:28:09.785Z,9.21
2023-03-16T19:30:37.898Z,9.23
2023-03-16T19:33:05.985Z,9.23
2023-03-16T19:35:50.746Z,9.22
2023-03-16T19:38:19.725Z,9.20
2023-03-16T19:40:47.611Z,9.19
2023-03-16T19:43:15.425Z,9.19
2023-03-16T19:45:43.417Z,9.18
2023-03-16T19:48:11.662Z,9.18
2023-03-16T19:50:39.551Z,9.18
2023-03-16T19:53:08.325Z,9.18
2023-03-16T19:55:36.870Z,9.18
2023-03-16T19:58:07.940Z,9.19
2023-03-16T20:00:36.406Z,9.20
2023-03-16T20:03:04.326Z,9.21
2023-03-16T20:05:33.893Z,9.21
2023-03-16T20:08:01.944Z,9.18
2023-03-16T20:10:33.108Z,9.21
2023-03-16T20:13:01.046Z,9.25
2023-03-16T20:15:29.268Z,9.26
2023-03-16T20:17:57.410Z,9.24
2023-03-16T20:20:25.270Z,9.22
2023-03-16T20:22:55.987Z,9.22
2023-03-16T20:25:23.979Z,9.22
2023-03-16T20:27:51.727Z,9.21
2023-03-16T20:30:19.765Z,9.22
2023-03-16T20:32:48.117Z,9.23
2023-03-16T20:35:16.532Z,9.23
2023-03-16T20:37:44.484Z,9.21
2023-03-16T20:40:12.308Z,9.19
2023-03-16T20:42:40.241Z,9.22
2023-03-16T20:45:09.912Z,9.24
2023-03-16T20:47:39.076Z,9.28
2023-03-16T20:50:06.861Z,9.28
2023-03-16T20:52:34.818Z,9.32
2023-03-16T20:55:05.479Z,9.36
2023-03-16T20:57:33.429Z,9.40
2023-03-16T21:00:02.443Z,9.42
2023-03-16T21:02:30.323Z,9.44
2023-03-16T21:04:58.296Z,9.45
2023-03-16T21:07:26.217Z,9.50
2023-03-16T21:09:54.038Z,9.52
2023-03-16T21:12:22.538Z,9.54
2023-03-16T21:14:50.400Z,9.54
2023-03-16T21:17:19.341Z,9.55
2023-03-16T21:19:47.083Z,9.55
2023-03-16T21:22:15.046Z,9.57
2023-03-16T21:24:43.636Z,9.58
2023-03-16T21:27:11.752Z,9.58
2023-03-16T21:29:39.598Z,9.57
2023-03-16T21:32:08.252Z,9.58
2023-03-16T21:34:36.229Z,9.60
2023-03-16T21:37:05.198Z,9.60
2023-03-16T21:39:33.526Z,9.58
2023-03-16T21:42:01.680Z,9.56
2023-03-16T21:44:29.552Z,9.57
2023-03-16T21:46:57.456Z,9.57
2023-03-16T21:49:25.629Z,9.57
2023-03-16T21:51:53.510Z,9.57
2023-03-16T21:54:21.344Z,9.59
2023-03-16T21:56:50.497Z,9.59
2023-03-16T21:59:18.319Z,9.58
2023-03-16T22:02:01.153Z,9.59
2023-03-16T22:04:29.789Z,9.62
2023-03-16T22:06:57.762Z,9.63
2023-03-16T22:09:30.288Z,9.63
2023-03-16T22:11:58.761Z,9.61
2023-03-16T22:14:27.419Z,9.64
2023-03-16T22:16:55.700Z,9.68
2023-03-16T22:19:23.586Z,9.69
2023-03-16T22:21:51.476Z,9.70
2023-03-16T22:24:19.762Z,9.74
2023-03-16T22:26:48.937Z,9.78
2023-03-16T22:29:16.966Z,9.78
2023-03-16T22:31:44.693Z,9.79
2023-03-16T22:34:12.555Z,9.77
2023-03-16T22:36:40.581Z,9.75
2023-03-16T22:39:08.912Z,9.77
2023-03-16T22:41:36.621Z,9.77
2023-03-16T22:44:04.768Z,9.76
2023-03-16T22:46:32.487Z,9.75
2023-03-16T22:49:01.134Z,9.76
2023-03-16T22:51:28.851Z,9.74
2023-03-16T22:53:56.561Z,9.76
2023-03-16T22:56:24.538Z,9.80
2023-03-16T22:58:52.262Z,9.82
2023-03-16T23:01:20.339Z,9.83
2023-03-16T23:03:48.054Z,9.81
2023-03-16T23:06:16.400Z,9.84
2023-03-16T23:08:44.095Z,9.88
2023-03-16T23:11:12.110Z,9.90
2023-03-16T23:13:40.109Z,9.89
2023-03-16T23:16:07.933Z,9.87
2023-03-16T23:18:36.596Z,9.82
2023-03-16T23:21:04.278Z,9.79
2023-03-16T23:23:32.039Z,9.78
2023-03-16T23:25:59.985Z,9.83
2023-03-16T23:28:28.178Z,9.88
2023-03-16T23:30:55.763Z,9.92
2023-03-16T23:33:23.478Z,9.95
2023-03-16T23:35:51.390Z,9.98
2023-03-16T23:38:19.592Z,10.00
2023-03-16T23:40:47.322Z,9.99
2023-03-16T23:43:14.956Z,10.02
2023-03-16T23:45:42.782Z,10.00
2023-03-16T23:48:10.634Z,10.01
2023-03-16T23:50:38.986Z,10.02
2023-03-16T23:53:06.997Z,10.04
2023-03-16T23:55:34.695Z,10.04
2023-03-16T23:58:02.967Z,10.04
